createdAt,value
2018-04-25T00:01:22.732Z,20.87
2018-04-25T00:03:51.055Z,20.40
2018-04-25T00:06:19.351Z,22.53
2018-04-25T00:08:47.635Z,19.77
2018-04-25T00:11:15.951Z,21.93
2018-04-25T00:13:44.237Z,22.00
2018-04-25T00:16:12.519Z,24.77
2018-04-25T00:18:40.832Z,27.57
2018-04-25T00:21:09.130Z,18.70
2018-04-25T00:23:37.443Z,17.87
2018-04-25T00:26:06.528Z,25.50
2018-04-25T00:28:34.879Z,22.10
2018-04-25T00:31:03.169Z,19.23
2018-04-25T00:33:32.220Z,22.13
2018-04-25T00:36:01.323Z,21.90
2018-04-25T00:38:29.615Z,27.73
2018-04-25T00:40:57.907Z,21.50
2018-04-25T00:43:26.295Z,22.57
2018-04-25T00:45:54.583Z,21.57
2018-04-25T00:48:22.872Z,21.63
2018-04-25T00:50:51.208Z,23.60
2018-04-25T00:53:19.512Z,24.57
2018-04-25T00:55:47.803Z,23.70
2018-04-25T00:58:16.159Z,21.10
2018-04-25T01:00:44.456Z,24.30
2018-04-25T01:03:13.571Z,22.20
2018-04-25T01:05:42.080Z,24.67
2018-04-25T01:08:10.367Z,32.13
2018-04-25T01:10:38.663Z,23.70
2018-04-25T01:13:06.971Z,28.87
2018-04-25T01:15:35.262Z,25.47
2018-04-25T01:18:03.587Z,25.40
2018-04-25T01:20:31.868Z,21.30
2018-04-25T01:23:00.156Z,25.00
2018-04-25T01:25:33.075Z,21.03
2018-04-25T01:41:32.035Z,19.50
2018-04-25T01:44:00.324Z,22.20
2018-04-25T01:46:31.591Z,25.93
2018-04-25T02:02:43.736Z,18.70
2018-04-25T02:05:12.037Z,21.77
2018-04-25T02:07:40.412Z,19.33
2018-04-25T02:10:08.746Z,21.67
2018-04-25T02:12:37.682Z,20.83
2018-04-25T02:15:06.448Z,21.03
2018-04-25T02:17:35.458Z,20.90
2018-04-25T02:20:04.382Z,29.30
2018-04-25T02:22:33.383Z,25.27
2018-04-25T02:25:01.676Z,22.20
2018-04-25T02:27:30.011Z,32.90
2018-04-25T02:29:58.312Z,22.03
2018-04-25T02:32:27.288Z,30.27
2018-04-25T02:34:55.731Z,22.80
2018-04-25T02:37:24.343Z,26.03
2018-04-25T02:39:52.671Z,22.47
2018-04-25T02:42:21.044Z,24.07
2018-04-25T02:44:49.555Z,22.73
2018-04-25T02:47:17.868Z,22.10
2018-04-25T02:49:46.250Z,22.87
2018-04-25T02:52:14.554Z,21.23
2018-04-25T02:54:43.599Z,22.93
2018-04-25T02:57:12.277Z,24.97
2018-04-25T02:59:40.580Z,31.00
2018-04-25T03:02:08.879Z,26.67
2018-04-25T03:04:36.979Z,26.27
2018-04-25T03:07:05.276Z,22.23
2018-04-25T03:09:33.584Z,23.93
2018-04-25T03:12:01.896Z,32.37
2018-04-25T03:14:30.651Z,31.03
2018-04-25T03:16:58.749Z,25.40
2018-04-25T03:19:27.807Z,25.23
2018-04-25T03:21:56.095Z,29.07
2018-04-25T03:24:24.436Z,25.70
2018-04-25T03:26:52.720Z,31.73
2018-04-25T03:29:21.008Z,25.50
2018-04-25T03:31:49.336Z,20.93
2018-04-25T03:34:18.192Z,28.63
2018-04-25T03:36:46.471Z,36.10
2018-04-25T03:39:14.783Z,22.10
2018-04-25T03:41:43.088Z,28.30
2018-04-25T03:44:11.589Z,31.37
2018-04-25T03:46:39.866Z,27.10
2018-04-25T03:49:08.155Z,23.87
2018-04-25T03:51:37.763Z,26.53
2018-04-25T03:54:06.064Z,28.67
2018-04-25T03:56:34.684Z,21.03
2018-04-25T03:59:03.601Z,30.97
2018-04-25T04:01:31.896Z,30.37
2018-04-25T04:04:00.233Z,28.10
2018-04-25T04:06:29.806Z,28.70
2018-04-25T04:08:58.091Z,26.70
2018-04-25T04:11:27.209Z,29.03
2018-04-25T04:13:55.764Z,30.17
2018-04-25T04:16:24.323Z,28.63
2018-04-25T04:18:53.170Z,25.23
2018-04-25T04:21:21.477Z,27.73
2018-04-25T04:23:49.796Z,30.63
2018-04-25T04:26:18.096Z,40.20
2018-04-25T04:28:46.376Z,24.37
2018-04-25T04:31:15.427Z,26.43
2018-04-25T04:33:44.360Z,26.20
2018-04-25T04:36:12.660Z,29.60
2018-04-25T04:38:40.959Z,20.40
2018-04-25T04:41:09.811Z,19.87
2018-04-25T04:43:38.116Z,21.80
2018-04-25T04:46:06.427Z,26.67
2018-04-25T04:48:34.780Z,23.33
2018-04-25T04:51:03.162Z,23.80
2018-04-25T04:53:31.253Z,22.87
2018-04-25T04:55:59.600Z,21.90
2018-04-25T04:58:27.880Z,26.23
2018-04-25T05:00:56.174Z,18.47
2018-04-25T05:03:24.531Z,20.10
2018-04-25T05:05:52.888Z,16.47
2018-04-25T05:08:21.198Z,16.53
2018-04-25T05:10:49.499Z,21.47
2018-04-25T05:13:17.820Z,20.83
2018-04-25T05:15:46.028Z,18.17
2018-04-25T05:18:14.324Z,13.63
2018-04-25T05:20:42.679Z,23.57
2018-04-25T05:23:10.983Z,21.23
2018-04-25T05:25:39.751Z,17.57
2018-04-25T05:28:08.225Z,21.47
2018-04-25T05:30:36.554Z,20.30
2018-04-25T05:33:05.603Z,19.33
2018-04-25T05:35:33.932Z,20.40
2018-04-25T05:38:02.991Z,19.60
2018-04-25T05:40:31.361Z,16.10
2018-04-25T05:42:59.839Z,32.47
2018-04-25T05:45:28.314Z,108.83
2018-04-25T05:47:56.628Z,179.33
2018-04-25T05:50:24.975Z,178.40
2018-04-25T05:52:53.372Z,51.47
2018-04-25T05:55:21.663Z,48.47
2018-04-25T05:57:50.003Z,27.13
2018-04-25T06:00:18.304Z,17.03
2018-04-25T06:02:47.408Z,20.93
2018-04-25T06:05:15.695Z,20.67
2018-04-25T06:07:45.031Z,20.00
2018-04-25T06:10:14.289Z,20.00
2018-04-25T06:12:42.600Z,16.17
2018-04-25T06:15:10.900Z,18.90
2018-04-25T06:17:39.358Z,19.53
2018-04-25T06:20:07.656Z,15.00
2018-04-25T06:22:35.975Z,19.23
2018-04-25T06:25:04.344Z,18.63
2018-04-25T06:27:32.647Z,14.20
2018-04-25T06:30:01.995Z,13.53
2018-04-25T06:32:30.332Z,16.23
2018-04-25T06:34:58.626Z,17.73
2018-04-25T06:37:26.959Z,10.77
2018-04-25T06:39:55.983Z,16.60
2018-04-25T06:42:25.250Z,20.40
2018-04-25T06:44:53.702Z,19.93
2018-04-25T06:47:22.549Z,14.33
2018-04-25T06:49:50.875Z,21.60
2018-04-25T06:52:19.215Z,14.37
2018-04-25T06:54:47.875Z,23.97
2018-04-25T06:57:16.174Z,22.80
2018-04-25T06:59:44.819Z,25.40
2018-04-25T07:02:13.327Z,16.30
2018-04-25T07:04:42.874Z,15.90
2018-04-25T07:07:11.411Z,14.73
2018-04-25T07:09:39.719Z,23.57
2018-04-25T07:12:08.079Z,17.83
2018-04-25T07:14:36.371Z,18.43
2018-04-25T07:17:04.919Z,14.70
2018-04-25T07:19:34.188Z,19.10
2018-04-25T07:22:02.827Z,19.40
2018-04-25T07:24:31.115Z,18.80
2018-04-25T07:27:00.782Z,12.23
2018-04-25T07:29:29.372Z,11.57
2018-04-25T07:31:58.109Z,21.20
2018-04-25T07:34:26.155Z,11.60
2018-04-25T07:36:54.444Z,15.07
2018-04-25T07:39:22.808Z,13.10
2018-04-25T07:41:51.199Z,10.10
2018-04-25T07:44:19.452Z,13.30
2018-04-25T07:46:48.343Z,14.90
2018-04-25T07:49:16.647Z,12.13
2018-04-25T07:51:44.964Z,17.63
2018-04-25T07:54:13.255Z,12.70
2018-04-25T07:56:41.974Z,11.20
2018-04-25T07:59:10.314Z,11.97
2018-04-25T08:01:38.595Z,9.90
2018-04-25T08:04:07.747Z,13.10
2018-04-25T08:06:37.304Z,16.00
2018-04-25T08:09:05.591Z,9.17
2018-04-25T08:11:33.896Z,12.50
2018-04-25T08:14:20.988Z,19.83
2018-04-25T08:17:06.771Z,13.03
2018-04-25T08:19:52.707Z,12.90
2018-04-25T08:22:21.000Z,9.40
2018-04-25T08:24:49.296Z,10.67
2018-04-25T08:27:17.697Z,15.63
2018-04-25T08:29:46.679Z,13.43
2018-04-25T08:32:15.005Z,14.60
2018-04-25T08:34:43.271Z,13.43
2018-04-25T08:37:11.439Z,10.43
2018-04-25T08:39:40.598Z,13.00
2018-04-25T08:42:08.939Z,26.90
2018-04-25T08:44:37.840Z,13.53
2018-04-25T08:47:06.251Z,13.50
2018-04-25T08:49:35.351Z,12.17
2018-04-25T08:52:04.277Z,26.03
2018-04-25T08:54:32.608Z,15.17
2018-04-25T08:57:01.279Z,13.80
2018-04-25T08:59:29.568Z,16.17
2018-04-25T09:01:58.675Z,18.40
2018-04-25T09:04:27.446Z,17.63
2018-04-25T09:06:55.786Z,22.83
2018-04-25T09:09:24.623Z,9.50
2018-04-25T09:11:53.715Z,13.40
2018-04-25T09:14:22.211Z,11.27
2018-04-25T09:16:50.496Z,11.03
2018-04-25T09:19:18.834Z,11.90
2018-04-25T09:21:47.115Z,12.43
2018-04-25T09:24:15.399Z,15.63
2018-04-25T09:26:43.705Z,9.20
2018-04-25T09:29:11.997Z,11.97
2018-04-25T09:31:40.303Z,14.40
2018-04-25T09:34:08.586Z,12.33
2018-04-25T09:36:37.315Z,14.10
2018-04-25T09:39:05.791Z,16.67
2018-04-25T09:41:34.123Z,12.60
2018-04-25T09:44:02.453Z,13.97
2018-04-25T09:46:30.558Z,12.77
2018-04-25T09:48:59.614Z,14.60
2018-04-25T09:51:27.898Z,10.70
2018-04-25T09:53:56.208Z,12.43
2018-04-25T09:56:25.255Z,10.87
2018-04-25T09:58:53.682Z,10.57
2018-04-25T10:01:27.231Z,11.30
2018-04-25T10:03:55.631Z,13.00
2018-04-25T10:08:59.047Z,11.20
2018-04-25T10:11:27.336Z,15.23
2018-04-25T10:13:55.623Z,11.70
2018-04-25T10:16:23.971Z,9.60
2018-04-25T10:18:52.259Z,11.07
2018-04-25T10:21:20.547Z,10.27
2018-04-25T10:23:49.245Z,10.70
2018-04-25T10:26:18.024Z,12.57
2018-04-25T10:28:46.909Z,11.17
2018-04-25T10:31:15.429Z,8.20
2018-04-25T10:33:44.411Z,9.87
2018-04-25T10:36:12.703Z,13.73
2018-04-25T10:38:41.458Z,14.00
2018-04-25T10:41:09.777Z,12.13
2018-04-25T10:43:38.257Z,16.53
2018-04-25T10:46:06.543Z,7.93
2018-04-25T10:48:34.827Z,12.43
2018-04-25T10:51:02.947Z,9.33
2018-04-25T10:53:31.811Z,13.60
2018-04-25T10:56:00.306Z,13.50
2018-04-25T10:58:28.551Z,6.87
2018-04-25T11:00:56.876Z,7.50
2018-04-25T11:03:25.159Z,10.27
2018-04-25T11:05:54.209Z,13.00
2018-04-25T11:08:22.759Z,14.53
2018-04-25T11:10:51.050Z,8.33
2018-04-25T11:13:19.326Z,13.93
2018-04-25T11:15:47.659Z,9.60
2018-04-25T11:18:15.943Z,7.73
2018-04-25T11:20:44.240Z,11.40
2018-04-25T11:23:12.563Z,10.37
2018-04-25T11:25:40.839Z,12.57
2018-04-25T11:28:09.124Z,7.87
2018-04-25T11:30:37.603Z,9.40
2018-04-25T11:33:05.940Z,10.40
2018-04-25T11:35:34.421Z,8.20
2018-04-25T11:38:03.027Z,12.33
2018-04-25T11:40:31.319Z,10.37
2018-04-25T11:42:59.599Z,13.30
2018-04-25T11:45:27.907Z,11.73
2018-04-25T11:47:56.963Z,12.57
2018-04-25T11:50:25.299Z,15.53
2018-04-25T11:52:53.599Z,13.77
2018-04-25T11:55:22.409Z,14.57
2018-04-25T11:57:51.222Z,10.07
2018-04-25T12:00:19.687Z,9.30
2018-04-25T12:02:48.027Z,21.27
2018-04-25T12:05:16.320Z,15.87
2018-04-25T12:07:44.691Z,20.03
2018-04-25T12:10:13.055Z,11.43
2018-04-25T12:12:41.851Z,9.77
2018-04-25T12:15:10.135Z,15.53
2018-04-25T12:17:38.431Z,14.13
2018-04-25T12:20:06.755Z,14.07
2018-04-25T12:22:35.035Z,11.97
2018-04-25T12:25:03.323Z,14.50
2018-04-25T12:27:31.650Z,12.67
2018-04-25T12:29:59.939Z,9.13
2018-04-25T12:32:28.920Z,10.80
2018-04-25T12:34:57.350Z,7.87
2018-04-25T12:37:26.162Z,12.30
2018-04-25T12:39:54.449Z,9.30
2018-04-25T12:42:22.754Z,8.80
2018-04-25T12:44:51.116Z,14.23
2018-04-25T12:47:19.494Z,9.57
2018-04-25T12:49:47.691Z,8.80
2018-04-25T12:52:15.807Z,11.50
2018-04-25T12:54:44.111Z,10.20
2018-04-25T12:57:12.408Z,13.87
2018-04-25T12:59:40.739Z,11.10
2018-04-25T13:02:08.987Z,10.40
2018-04-25T13:04:37.271Z,13.87
2018-04-25T13:07:05.885Z,10.20
2018-04-25T13:09:34.467Z,12.27
2018-04-25T13:12:02.755Z,13.80
2018-04-25T13:14:31.080Z,13.80
2018-04-25T13:16:59.363Z,11.83
2018-04-25T13:19:27.668Z,6.90
2018-04-25T13:21:56.425Z,8.97
2018-04-25T13:24:24.712Z,10.90
2018-04-25T13:26:53.771Z,7.20
2018-04-25T13:29:22.115Z,10.47
2018-04-25T13:31:50.399Z,13.17
2018-04-25T13:34:18.683Z,11.80
2018-04-25T13:36:48.011Z,16.47
2018-04-25T13:39:16.295Z,11.30
2018-04-25T13:41:45.347Z,10.50
2018-04-25T13:44:13.683Z,11.47
2018-04-25T13:46:42.048Z,10.20
2018-04-25T13:49:10.423Z,11.67
2018-04-25T13:51:38.755Z,13.07
2018-04-25T13:54:07.036Z,10.07
2018-04-25T13:56:35.480Z,11.57
2018-04-25T13:59:03.805Z,12.53
2018-04-25T14:01:32.124Z,9.93
2018-04-25T14:04:01.547Z,8.97
2018-04-25T14:06:29.832Z,9.53
2018-04-25T14:08:58.164Z,9.73
2018-04-25T14:11:26.483Z,8.10
2018-04-25T14:13:55.544Z,12.13
2018-04-25T14:16:23.887Z,12.37
2018-04-25T14:18:52.171Z,10.53
2018-04-25T14:21:20.219Z,9.03
2018-04-25T14:23:48.659Z,8.80
2018-04-25T14:26:16.948Z,8.07
2018-04-25T14:28:45.239Z,8.33
2018-04-25T14:31:13.727Z,11.57
2018-04-25T14:33:42.771Z,6.47
2018-04-25T14:36:11.055Z,5.83
2018-04-25T14:38:39.163Z,8.83
2018-04-25T14:41:07.459Z,7.40
2018-04-25T14:43:35.923Z,7.97
2018-04-25T14:46:04.716Z,10.90
2018-04-25T14:48:33.012Z,9.37
2018-04-25T14:51:01.983Z,8.03
2018-04-25T14:53:30.279Z,9.20
2018-04-25T14:55:59.355Z,11.80
2018-04-25T14:58:27.645Z,11.53
2018-04-25T15:00:56.030Z,6.83
2018-04-25T15:03:24.360Z,8.93
2018-04-25T15:05:52.680Z,8.00
2018-04-25T15:08:21.266Z,4.80
2018-04-25T15:10:50.025Z,4.70
2018-04-25T15:13:18.806Z,8.77
2018-04-25T15:15:47.426Z,10.73
2018-04-25T15:18:15.767Z,7.00
2018-04-25T15:20:44.049Z,6.43
2018-04-25T15:23:12.340Z,5.63
2018-04-25T15:25:41.163Z,7.07
2018-04-25T15:28:10.126Z,6.17
2018-04-25T15:30:38.667Z,6.50
2018-04-25T15:33:07.769Z,8.00
2018-04-25T15:35:36.360Z,7.50
2018-04-25T15:38:05.503Z,9.47
2018-04-25T15:40:33.788Z,9.13
2018-04-25T15:43:02.549Z,9.57
2018-04-25T15:45:31.660Z,6.73
2018-04-25T15:48:00.740Z,5.33
2018-04-25T15:50:29.029Z,8.57
2018-04-25T15:52:57.319Z,6.33
2018-04-25T15:55:25.731Z,9.60
2018-04-25T15:57:57.275Z,9.13
2018-04-25T16:00:25.606Z,9.50
2018-04-25T16:02:54.663Z,10.27
2018-04-25T16:05:23.405Z,14.30
2018-04-25T16:07:51.996Z,7.87
2018-04-25T16:10:20.283Z,7.77
2018-04-25T16:12:48.571Z,5.10
2018-04-25T16:15:16.931Z,7.00
2018-04-25T16:17:45.867Z,9.23
2018-04-25T16:20:14.196Z,5.23
2018-04-25T16:22:42.625Z,8.17
2018-04-25T16:25:11.591Z,7.10
2018-04-25T16:27:39.870Z,9.90
2018-04-25T16:30:08.202Z,6.40
2018-04-25T16:32:36.251Z,8.90
2018-04-25T16:35:04.558Z,11.30
2018-04-25T16:37:33.979Z,9.37
2018-04-25T16:40:02.265Z,12.27
2018-04-25T16:42:30.548Z,8.00
2018-04-25T16:44:58.859Z,7.67
2018-04-25T16:47:27.147Z,6.50
2018-04-25T16:49:55.599Z,8.73
2018-04-25T16:52:23.887Z,8.57
2018-04-25T16:54:55.955Z,7.77
2018-04-25T16:57:25.004Z,5.77
2018-04-25T16:59:53.881Z,9.07
2018-04-25T17:02:22.168Z,9.60
2018-04-25T17:04:51.368Z,6.90
2018-04-25T17:07:20.116Z,6.87
2018-04-25T17:09:49.179Z,14.80
2018-04-25T17:12:17.479Z,13.70
2018-04-25T17:14:46.190Z,9.03
2018-04-25T17:17:14.489Z,7.40
2018-04-25T17:19:42.771Z,8.57
2018-04-25T17:22:11.568Z,14.90
2018-04-25T17:24:39.867Z,10.37
2018-04-25T17:27:08.159Z,7.00
2018-04-25T17:29:36.591Z,10.77
2018-04-25T17:32:05.023Z,6.93
2018-04-25T17:34:34.070Z,6.03
2018-04-25T17:37:02.395Z,7.83
2018-04-25T17:39:30.679Z,6.33
2018-04-25T17:41:59.382Z,4.93
2018-04-25T17:44:27.887Z,6.87
2018-04-25T17:46:56.385Z,8.40
2018-04-25T17:49:24.722Z,7.63
2018-04-25T17:51:53.004Z,9.97
2018-04-25T17:54:21.619Z,9.70
2018-04-25T17:56:50.139Z,18.80
2018-04-25T17:59:19.187Z,6.83
2018-04-25T18:01:47.278Z,9.87
2018-04-25T18:04:15.595Z,6.63
2018-04-25T18:06:46.000Z,9.10
2018-04-25T18:11:49.660Z,6.93
2018-04-25T18:14:17.937Z,7.90
2018-04-25T18:16:46.337Z,6.03
2018-04-25T18:19:15.349Z,8.80
2018-04-25T18:21:44.185Z,7.13
2018-04-25T18:24:12.757Z,9.23
2018-04-25T18:26:41.580Z,6.00
2018-04-25T18:29:09.940Z,6.00
2018-04-25T18:31:38.551Z,9.60
2018-04-25T18:34:08.452Z,9.17
2018-04-25T18:36:40.679Z,6.97
2018-04-25T18:39:09.538Z,5.10
2018-04-25T18:41:38.740Z,7.50
2018-04-25T18:44:07.047Z,10.37
2018-04-25T18:46:36.935Z,7.53
2018-04-25T18:49:05.227Z,7.73
2018-04-25T18:51:33.667Z,8.63
2018-04-25T18:54:02.000Z,6.30
2018-04-25T18:56:30.416Z,6.27
2018-04-25T18:58:58.700Z,7.57
2018-04-25T19:01:27.482Z,6.63
2018-04-25T19:03:55.772Z,7.40
2018-04-25T19:06:24.178Z,5.87
2018-04-25T19:08:52.517Z,4.13
2018-04-25T19:11:20.807Z,5.97
2018-04-25T19:13:49.795Z,4.13
2018-04-25T19:16:18.628Z,6.13
2018-04-25T19:18:47.030Z,5.30
2018-04-25T19:21:16.473Z,4.67
2018-04-25T19:23:45.019Z,7.17
2018-04-25T19:26:14.103Z,4.20
2018-04-25T19:28:42.557Z,3.97
2018-04-25T19:31:11.639Z,4.47
2018-04-25T19:33:40.712Z,5.53
2018-04-25T19:36:09.296Z,5.17
2018-04-25T19:38:38.861Z,8.00
2018-04-25T19:41:07.928Z,4.03
2018-04-25T19:43:37.015Z,8.17
2018-04-25T19:46:06.223Z,8.57
2018-04-25T19:48:34.339Z,6.53
2018-04-25T19:51:02.671Z,5.27
2018-04-25T19:53:31.539Z,7.50
2018-04-25T19:56:01.552Z,8.70
2018-04-25T19:58:29.840Z,3.90
2018-04-25T20:00:58.176Z,5.40
2018-04-25T20:03:26.476Z,6.33
2018-04-25T20:05:54.879Z,6.73
2018-04-25T20:08:23.426Z,5.50
2018-04-25T20:10:51.666Z,7.27
2018-04-25T20:13:20.523Z,6.40
2018-04-25T20:15:48.945Z,7.33
2018-04-25T20:18:17.371Z,5.90
2018-04-25T20:20:46.033Z,3.93
2018-04-25T20:23:14.471Z,4.60
2018-04-25T20:25:43.351Z,4.13
2018-04-25T20:28:11.708Z,3.40
2018-04-25T20:30:40.247Z,6.53
2018-04-25T20:33:08.973Z,5.00
2018-04-25T20:35:37.263Z,3.50
2018-04-25T20:38:05.603Z,4.23
2018-04-25T20:40:35.575Z,7.13
2018-04-25T20:43:04.323Z,5.53
2018-04-25T20:45:35.517Z,5.30
2018-04-25T20:48:04.137Z,3.90
2018-04-25T20:50:34.292Z,4.33
2018-04-25T20:53:02.980Z,3.00
2018-04-25T20:55:32.064Z,3.23
2018-04-25T20:58:00.918Z,3.30
2018-04-25T21:00:30.001Z,3.60
2018-04-25T21:02:58.291Z,4.60
2018-04-25T21:05:29.228Z,3.43
2018-04-25T21:07:57.551Z,3.30
2018-04-25T21:10:27.341Z,4.83
2018-04-25T21:12:56.272Z,4.53
2018-04-25T21:15:24.904Z,7.47
2018-04-25T21:17:53.239Z,3.73
2018-04-25T21:20:23.978Z,2.90
2018-04-25T21:22:54.180Z,3.70
2018-04-25T21:25:22.846Z,3.90
2018-04-25T21:27:50.892Z,3.83
2018-04-25T21:30:19.758Z,4.00
2018-04-25T21:32:48.079Z,4.23
2018-04-25T21:35:16.427Z,4.90
2018-04-25T21:37:44.738Z,5.17
2018-04-25T21:40:13.085Z,6.50
2018-04-25T21:42:41.368Z,4.03
2018-04-25T21:45:09.711Z,5.07
2018-04-25T21:47:38.049Z,6.23
2018-04-25T21:50:06.675Z,5.30
2018-04-25T21:52:37.085Z,4.10
2018-04-25T21:55:05.427Z,4.40
2018-04-25T21:57:33.706Z,4.97
2018-04-25T22:00:02.705Z,4.40
2018-04-25T22:02:31.482Z,5.00
2018-04-25T22:05:00.187Z,4.40
2018-04-25T22:07:28.481Z,5.40
2018-04-25T22:09:56.819Z,5.80
2018-04-25T22:12:25.112Z,4.57
2018-04-25T22:14:53.399Z,5.33
2018-04-25T22:17:24.325Z,5.37
2018-04-25T22:19:52.771Z,7.27
2018-04-25T22:22:21.052Z,5.53
2018-04-25T22:24:49.606Z,7.30
2018-04-25T22:27:17.955Z,6.87
2018-04-25T22:29:46.235Z,4.97
2018-04-25T22:32:15.243Z,5.80
2018-04-25T22:34:44.036Z,4.30
2018-04-25T22:37:12.315Z,3.87
2018-04-25T22:39:41.185Z,5.13
2018-04-25T22:42:09.468Z,4.27
2018-04-25T22:44:38.523Z,6.17
2018-04-25T22:47:08.225Z,4.30
2018-04-25T22:49:36.877Z,8.37
2018-04-25T22:52:05.167Z,8.13
2018-04-25T22:54:35.260Z,6.03
2018-04-25T22:57:03.675Z,7.40
2018-04-25T22:59:33.847Z,6.70
2018-04-25T23:02:02.493Z,8.10
2018-04-25T23:04:31.867Z,6.57
2018-04-25T23:07:00.158Z,6.10
2018-04-25T23:09:28.507Z,5.60
2018-04-25T23:11:57.290Z,5.10
2018-04-25T23:14:25.992Z,5.60
2018-04-25T23:16:54.283Z,4.67
2018-04-25T23:19:22.572Z,5.43
2018-04-25T23:21:51.008Z,5.03
2018-04-25T23:24:19.838Z,5.13
2018-04-25T23:26:48.492Z,6.13
2018-04-25T23:29:16.795Z,5.40
2018-04-25T23:31:45.091Z,6.10
2018-04-25T23:34:13.431Z,6.73
2018-04-25T23:36:42.643Z,5.63
2018-04-25T23:39:10.955Z,5.57
2018-04-25T23:41:39.282Z,4.47
2018-04-25T23:44:08.648Z,11.23
2018-04-25T23:46:36.967Z,8.53
2018-04-25T23:49:07.532Z,7.90
2018-04-25T23:51:35.821Z,4.90
2018-04-25T23:54:04.214Z,6.40
2018-04-25T23:56:32.630Z,5.63
2018-04-25T23:59:01.542Z,6.10
